sensor_id;sensor_type;location;lat;lon;timestamp;pressure;altitude;pressure_sealevel;temperature;humidity
29169;BME280;16219;42.864;23.360;2023-05-03T00:02:22;96196.25;;;13.55;54.90
29169;BME280;16219;42.864;23.360;2023-05-03T00:04:51;96189.56;;;13.48;54.77
29169;BME280;16219;42.864;23.360;2023-05-03T00:07:20;96184.63;;;13.38;51.24
29169;BME280;16219;42.864;23.360;2023-05-03T00:09:47;96194.47;;;13.29;52.89
29169;BME280;16219;42.864;23.360;2023-05-03T00:12:14;96194.78;;;13.19;52.98
29169;BME280;16219;42.864;23.360;2023-05-03T00:14:41;96204.47;;;13.15;56.50
29169;BME280;16219;42.864;23.360;2023-05-03T00:17:08;96207.28;;;13.10;57.36
29169;BME280;16219;42.864;23.360;2023-05-03T00:19:35;96204.16;;;13.08;54.70
29169;BME280;16219;42.864;23.360;2023-05-03T00:22:04;96190.00;;;12.95;54.52
29169;BME280;16219;42.864;23.360;2023-05-03T00:24:33;96190.50;;;12.97;55.72
29169;BME280;16219;42.864;23.360;2023-05-03T00:27:00;96208.41;;;13.00;57.99
29169;BME280;16219;42.864;23.360;2023-05-03T00:29:29;96203.25;;;12.95;57.64
29169;BME280;16219;42.864;23.360;2023-05-03T00:31:56;96207.31;;;13.01;59.18
29169;BME280;16219;42.864;23.360;2023-05-03T00:34:24;96207.59;;;12.99;59.78
29169;BME280;16219;42.864;23.360;2023-05-03T00:36:51;96205.75;;;13.09;57.43
29169;BME280;16219;42.864;23.360;2023-05-03T00:39:18;96210.13;;;13.05;56.77
29169;BME280;16219;42.864;23.360;2023-05-03T00:41:46;96217.72;;;13.06;56.34
29169;BME280;16219;42.864;23.360;2023-05-03T00:44:13;96223.78;;;13.15;58.37
29169;BME280;16219;42.864;23.360;2023-05-03T00:46:40;96223.19;;;13.10;58.56
29169;BME280;16219;42.864;23.360;2023-05-03T00:49:07;96226.94;;;13.09;56.78
29169;BME280;16219;42.864;23.360;2023-05-03T00:51:34;96227.41;;;13.02;59.80
29169;BME280;16219;42.864;23.360;2023-05-03T00:54:02;96231.78;;;12.98;60.26
29169;BME280;16219;42.864;23.360;2023-05-03T00:56:31;96232.13;;;12.79;59.89
29169;BME280;16219;42.864;23.360;2023-05-03T00:59:00;96233.34;;;12.90;58.93
29169;BME280;16219;42.864;23.360;2023-05-03T01:01:28;96220.59;;;12.75;58.26
29169;BME280;16219;42.864;23.360;2023-05-03T01:03:55;96230.41;;;12.83;59.54
29169;BME280;16219;42.864;23.360;2023-05-03T01:06:31;96230.06;;;12.85;57.51
29169;BME280;16219;42.864;23.360;2023-05-03T01:09:02;96218.22;;;12.82;60.12
29169;BME280;16219;42.864;23.360;2023-05-03T01:11:36;96214.03;;;12.81;62.16
29169;BME280;16219;42.864;23.360;2023-05-03T01:14:17;96209.34;;;12.78;63.23
29169;BME280;16219;42.864;23.360;2023-05-03T01:16:50;96221.03;;;12.86;66.88
29169;BME280;16219;42.864;23.360;2023-05-03T01:19:27;96220.59;;;12.84;61.33
29169;BME280;16219;42.864;23.360;2023-05-03T01:22:12;96209.50;;;12.82;61.42
29169;BME280;16219;42.864;23.360;2023-05-03T01:25:05;96207.50;;;12.79;62.79
29169;BME280;16219;42.864;23.360;2023-05-03T01:27:34;96198.47;;;12.80;60.64
29169;BME280;16219;42.864;23.360;2023-05-03T01:30:02;96197.19;;;12.86;64.21
29169;BME280;16219;42.864;23.360;2023-05-03T01:32:35;96187.88;;;12.88;64.12
29169;BME280;16219;42.864;23.360;2023-05-03T01:35:11;96178.84;;;12.81;70.52
29169;BME280;16219;42.864;23.360;2023-05-03T01:37:42;96172.78;;;12.80;68.29
29169;BME280;16219;42.864;23.360;2023-05-03T01:40:12;96180.22;;;12.87;68.59
29169;BME280;16219;42.864;23.360;2023-05-03T01:42:41;96184.59;;;12.91;67.93
29169;BME280;16219;42.864;23.360;2023-05-03T01:45:10;96176.78;;;12.86;66.99
29169;BME280;16219;42.864;23.360;2023-05-03T01:47:37;96190.34;;;12.85;69.58
29169;BME280;16219;42.864;23.360;2023-05-03T01:50:05;96184.59;;;12.91;71.35
29169;BME280;16219;42.864;23.360;2023-05-03T01:52:32;96185.50;;;12.87;66.69
29169;BME280;16219;42.864;23.360;2023-05-03T01:54:59;96185.06;;;12.76;72.74
29169;BME280;16219;42.864;23.360;2023-05-03T01:57:27;96183.81;;;12.73;70.95
29169;BME280;16219;42.864;23.360;2023-05-03T01:59:55;96184.63;;;12.65;72.44
29169;BME280;16219;42.864;23.360;2023-05-03T02:02:22;96178.72;;;12.60;73.17
29169;BME280;16219;42.864;23.360;2023-05-03T02:04:50;96169.66;;;12.61;73.03
29169;BME280;16219;42.864;23.360;2023-05-03T02:07:17;96181.84;;;12.62;76.67
29169;BME280;16219;42.864;23.360;2023-05-03T02:09:44;96183.06;;;12.56;77.61
29169;BME280;16219;42.864;23.360;2023-05-03T02:12:11;96185.56;;;12.52;75.80
29169;BME280;16219;42.864;23.360;2023-05-03T02:14:39;96177.47;;;12.48;77.38
29169;BME280;16219;42.864;23.360;2023-05-03T02:17:07;96184.00;;;12.60;77.36
29169;BME280;16219;42.864;23.360;2023-05-03T02:19:35;96177.00;;;12.46;81.24
29169;BME280;16219;42.864;23.360;2023-05-03T02:22:02;96175.91;;;12.47;89.39
29169;BME280;16219;42.864;23.360;2023-05-03T02:24:29;96179.03;;;12.49;89.72
29169;BME280;16219;42.864;23.360;2023-05-03T02:26:56;96162.38;;;12.58;84.41
29169;BME280;16219;42.864;23.360;2023-05-03T02:29:23;96162.22;;;12.63;86.26
29169;BME280;16219;42.864;23.360;2023-05-03T02:31:51;96168.13;;;12.42;88.32
29169;BME280;16219;42.864;23.360;2023-05-03T02:34:18;96174.38;;;12.29;91.66
29169;BME280;16219;42.864;23.360;2023-05-03T02:36:46;96172.03;;;12.28;94.30
29169;BME280;16219;42.864;23.360;2023-05-03T02:39:14;96175.91;;;12.30;97.66
29169;BME280;16219;42.864;23.360;2023-05-03T02:41:41;96177.47;;;12.31;96.64
29169;BME280;16219;42.864;23.360;2023-05-03T02:44:09;96180.44;;;12.21;100.00
29169;BME280;16219;42.864;23.360;2023-05-03T02:46:37;96186.66;;;12.16;100.00
29169;BME280;16219;42.864;23.360;2023-05-03T02:49:08;96177.78;;;12.21;97.80
29169;BME280;16219;42.864;23.360;2023-05-03T02:51:35;96185.72;;;12.12;100.00
29169;BME280;16219;42.864;23.360;2023-05-03T02:54:02;96172.47;;;12.04;94.11
29169;BME280;16219;42.864;23.360;2023-05-03T02:56:31;96168.28;;;12.03;99.68
29169;BME280;16219;42.864;23.360;2023-05-03T02:58:58;96173.44;;;12.08;85.97
29169;BME280;16219;42.864;23.360;2023-05-03T03:01:26;96176.53;;;12.10;94.43
29169;BME280;16219;42.864;23.360;2023-05-03T03:03:55;96178.22;;;12.06;82.85
29169;BME280;16219;42.864;23.360;2023-05-03T03:06:23;96192.41;;;12.10;73.07
29169;BME280;16219;42.864;23.360;2023-05-03T03:08:50;96192.88;;;12.12;76.19
29169;BME280;16219;42.864;23.360;2023-05-03T03:11:17;96196.75;;;12.14;79.74
29169;BME280;16219;42.864;23.360;2023-05-03T03:13:46;96190.69;;;12.22;85.68
29169;BME280;16219;42.864;23.360;2023-05-03T03:16:13;96180.13;;;12.22;87.34
29169;BME280;16219;42.864;23.360;2023-05-03T03:18:40;96181.22;;;12.21;90.55
29169;BME280;16219;42.864;23.360;2023-05-03T03:21:08;96186.19;;;12.23;92.01
29169;BME280;16219;42.864;23.360;2023-05-03T03:23:37;96181.38;;;12.16;88.72
29169;BME280;16219;42.864;23.360;2023-05-03T03:26:04;96177.00;;;12.29;91.80
29169;BME280;16219;42.864;23.360;2023-05-03T03:28:50;96183.09;;;12.38;92.59
29169;BME280;16219;42.864;23.360;2023-05-03T03:31:17;96181.69;;;12.41;80.20
29169;BME280;16219;42.864;23.360;2023-05-03T03:33:47;96178.25;;;12.32;81.10
29169;BME280;16219;42.864;23.360;2023-05-03T03:36:18;96186.22;;;12.40;87.49
29169;BME280;16219;42.864;23.360;2023-05-03T03:38:48;96186.22;;;12.40;75.53
29169;BME280;16219;42.864;23.360;2023-05-03T03:41:15;96188.97;;;12.44;80.70
29169;BME280;16219;42.864;23.360;2023-05-03T03:43:43;96189.31;;;12.42;72.82
29169;BME280;16219;42.864;23.360;2023-05-03T03:46:15;96190.69;;;12.48;73.26
29169;BME280;16219;42.864;23.360;2023-05-03T03:48:43;96194.75;;;12.55;72.27
29169;BME280;16219;42.864;23.360;2023-05-03T03:51:10;96211.25;;;12.43;73.65
29169;BME280;16219;42.864;23.360;2023-05-03T03:53:43;96217.47;;;12.47;74.32
29169;BME280;16219;42.864;23.360;2023-05-03T03:56:11;96224.03;;;12.41;73.10
29169;BME280;16219;42.864;23.360;2023-05-03T03:58:40;96223.88;;;12.37;76.55
29169;BME280;16219;42.864;23.360;2023-05-03T04:01:09;96230.88;;;12.33;79.13
29169;BME280;16219;42.864;23.360;2023-05-03T04:03:37;96235.84;;;12.43;85.69
29169;BME280;16219;42.864;23.360;2023-05-03T04:06:04;96236.16;;;12.33;70.95
29169;BME280;16219;42.864;23.360;2023-05-03T04:08:31;96231.97;;;12.49;73.06
29169;BME280;16219;42.864;23.360;2023-05-03T04:10:58;96239.25;;;12.44;75.46
29169;BME280;16219;42.864;23.360;2023-05-03T04:13:26;96248.47;;;12.46;82.52
29169;BME280;16219;42.864;23.360;2023-05-03T04:15:55;96243.50;;;12.54;84.73
29169;BME280;16219;42.864;23.360;2023-05-03T04:18:23;96236.63;;;12.52;85.29
29169;BME280;16219;42.864;23.360;2023-05-03T04:20:52;96240.97;;;12.48;79.88
29169;BME280;16219;42.864;23.360;2023-05-03T04:23:19;96252.66;;;12.47;72.72
29169;BME280;16219;42.864;23.360;2023-05-03T04:25:47;96253.75;;;12.46;69.41
29169;BME280;16219;42.864;23.360;2023-05-03T04:28:15;96264.66;;;12.54;76.18
29169;BME280;16219;42.864;23.360;2023-05-03T04:30:47;96260.91;;;12.55;77.81
29169;BME280;16219;42.864;23.360;2023-05-03T04:33:20;96266.81;;;12.43;79.40
29169;BME280;16219;42.864;23.360;2023-05-03T04:35:49;96268.84;;;12.37;78.01
29169;BME280;16219;42.864;23.360;2023-05-03T04:38:17;96272.25;;;12.29;82.58
29169;BME280;16219;42.864;23.360;2023-05-03T04:40:45;96275.38;;;12.40;92.30
29169;BME280;16219;42.864;23.360;2023-05-03T04:43:12;96274.91;;;12.46;95.59
29169;BME280;16219;42.864;23.360;2023-05-03T04:45:43;96279.91;;;12.48;92.58
29169;BME280;16219;42.864;23.360;2023-05-03T04:48:17;96285.97;;;12.57;91.98
29169;BME280;16219;42.864;23.360;2023-05-03T04:50:44;96284.91;;;12.58;85.55
29169;BME280;16219;42.864;23.360;2023-05-03T04:53:13;96296.09;;;12.46;92.99
29169;BME280;16219;42.864;23.360;2023-05-03T04:55:43;96295.59;;;12.36;93.52
29169;BME280;16219;42.864;23.360;2023-05-03T04:58:13;96296.88;;;12.47;86.32
29169;BME280;16219;42.864;23.360;2023-05-03T05:00:41;96309.78;;;12.48;91.26
29169;BME280;16219;42.864;23.360;2023-05-03T05:03:14;96314.28;;;12.48;99.40
29169;BME280;16219;42.864;23.360;2023-05-03T05:05:44;96314.44;;;12.34;95.14
29169;BME280;16219;42.864;23.360;2023-05-03T05:08:13;96322.97;;;12.31;94.35
29169;BME280;16219;42.864;23.360;2023-05-03T05:10:46;96325.34;;;12.41;96.15
29169;BME280;16219;42.864;23.360;2023-05-03T05:13:18;96325.63;;;12.31;98.26
29169;BME280;16219;42.864;23.360;2023-05-03T05:15:45;96326.41;;;12.32;95.58
29169;BME280;16219;42.864;23.360;2023-05-03T05:18:13;96321.88;;;12.23;100.00
29169;BME280;16219;42.864;23.360;2023-05-03T05:20:40;96341.38;;;12.36;98.80
29169;BME280;16219;42.864;23.360;2023-05-03T05:23:09;96334.47;;;12.26;100.00
29169;BME280;16219;42.864;23.360;2023-05-03T05:25:39;96332.78;;;12.31;100.00
29169;BME280;16219;42.864;23.360;2023-05-03T05:28:08;96334.97;;;12.29;100.00
29169;BME280;16219;42.864;23.360;2023-05-03T05:30:36;96332.63;;;12.27;100.00
29169;BME280;16219;42.864;23.360;2023-05-03T05:33:03;96334.81;;;12.25;100.00
29169;BME280;16219;42.864;23.360;2023-05-03T05:35:32;96333.84;;;12.21;100.00
29169;BME280;16219;42.864;23.360;2023-05-03T05:38:00;96334.44;;;12.09;100.00
29169;BME280;16219;42.864;23.360;2023-05-03T05:40:30;96326.28;;;11.97;100.00
29169;BME280;16219;42.864;23.360;2023-05-03T05:42:59;96335.94;;;12.01;100.00
29169;BME280;16219;42.864;23.360;2023-05-03T05:45:29;96329.59;;;12.03;100.00
29169;BME280;16219;42.864;23.360;2023-05-03T05:47:57;96328.66;;;11.98;100.00
29169;BME280;16219;42.864;23.360;2023-05-03T05:50:24;96327.00;;;12.20;100.00
29169;BME280;16219;42.864;23.360;2023-05-03T05:52:57;96324.38;;;12.20;100.00
29169;BME280;16219;42.864;23.360;2023-05-03T05:55:30;96325.47;;;12.28;100.00
29169;BME280;16219;42.864;23.360;2023-05-03T05:58:17;96331.09;;;12.35;100.00
29169;BME280;16219;42.864;23.360;2023-05-03T06:00:49;96318.19;;;12.50;100.00
29169;BME280;16219;42.864;23.360;2023-05-03T06:03:17;96326.94;;;12.60;100.00
29169;BME280;16219;42.864;23.360;2023-05-03T06:05:47;96329.59;;;12.68;100.00
29169;BME280;16219;42.864;23.360;2023-05-03T06:08:14;96325.72;;;12.66;100.00
29169;BME280;16219;42.864;23.360;2023-05-03T06:10:42;96324.13;;;12.65;100.00
29169;BME280;16219;42.864;23.360;2023-05-03T06:13:09;96320.09;;;12.59;100.00
29169;BME280;16219;42.864;23.360;2023-05-03T06:15:49;96317.44;;;12.76;100.00
29169;BME280;16219;42.864;23.360;2023-05-03T06:18:17;96315.91;;;12.84;100.00
29169;BME280;16219;42.864;23.360;2023-05-03T06:20:47;96314.34;;;12.91;100.00
29169;BME280;16219;42.864;23.360;2023-05-03T06:23:16;96314.03;;;13.10;100.00
29169;BME280;16219;42.864;23.360;2023-05-03T06:25:46;96304.53;;;13.00;100.00
29169;BME280;16219;42.864;23.360;2023-05-03T06:28:14;96309.34;;;12.98;100.00
29169;BME280;16219;42.864;23.360;2023-05-03T06:30:41;96306.84;;;13.11;100.00
29169;BME280;16219;42.864;23.360;2023-05-03T06:33:12;96303.25;;;13.15;100.00
29169;BME280;16219;42.864;23.360;2023-05-03T06:35:41;96303.59;;;13.31;100.00
29169;BME280;16219;42.864;23.360;2023-05-03T06:38:09;96299.84;;;13.32;100.00
29169;BME280;16219;42.864;23.360;2023-05-03T06:40:37;96303.28;;;13.24;100.00
29169;BME280;16219;42.864;23.360;2023-05-03T06:43:07;96306.41;;;13.26;100.00
29169;BME280;16219;42.864;23.360;2023-05-03T06:45:42;96309.22;;;13.30;100.00
29169;BME280;16219;42.864;23.360;2023-05-03T06:48:10;96309.69;;;13.23;100.00
29169;BME280;16219;42.864;23.360;2023-05-03T06:50:37;96299.06;;;13.23;100.00
29169;BME280;16219;42.864;23.360;2023-05-03T06:53:04;96305.63;;;13.17;100.00
29169;BME280;16219;42.864;23.360;2023-05-03T06:55:32;96314.19;;;13.31;100.00
29169;BME280;16219;42.864;23.360;2023-05-03T06:57:59;96303.25;;;13.41;100.00
29169;BME280;16219;42.864;23.360;2023-05-03T07:00:28;96290.66;;;13.30;100.00
29169;BME280;16219;42.864;23.360;2023-05-03T07:02:56;96300.28;;;13.43;100.00
29169;BME280;16219;42.864;23.360;2023-05-03T07:05:23;96290.34;;;13.22;100.00
29169;BME280;16219;42.864;23.360;2023-05-03T07:07:50;96281.13;;;13.20;100.00
29169;BME280;16219;42.864;23.360;2023-05-03T07:10:17;96287.38;;;13.15;100.00
29169;BME280;16219;42.864;23.360;2023-05-03T07:12:44;96278.31;;;13.08;100.00
29169;BME280;16219;42.864;23.360;2023-05-03T07:15:11;96272.91;;;13.13;100.00
29169;BME280;16219;42.864;23.360;2023-05-03T07:17:40;96274.91;;;13.16;100.00
29169;BME280;16219;42.864;23.360;2023-05-03T07:20:08;96265.88;;;13.17;100.00
29169;BME280;16219;42.864;23.360;2023-05-03T07:22:36;96254.97;;;13.10;100.00
29169;BME280;16219;42.864;23.360;2023-05-03T07:25:03;96257.78;;;13.05;100.00
29169;BME280;16219;42.864;23.360;2023-05-03T07:27:31;96261.06;;;13.01;100.00
29169;BME280;16219;42.864;23.360;2023-05-03T07:29:58;96269.44;;;13.04;100.00
29169;BME280;16219;42.864;23.360;2023-05-03T07:32:25;96278.19;;;13.21;100.00
29169;BME280;16219;42.864;23.360;2023-05-03T07:34:53;96282.53;;;13.35;100.00
29169;BME280;16219;42.864;23.360;2023-05-03T07:37:21;96294.84;;;13.39;100.00
29169;BME280;16219;42.864;23.360;2023-05-03T07:39:49;96292.94;;;13.48;100.00
29169;BME280;16219;42.864;23.360;2023-05-03T07:42:17;96297.56;;;13.69;100.00
29169;BME280;16219;42.864;23.360;2023-05-03T07:44:43;96306.28;;;13.78;100.00
29169;BME280;16219;42.864;23.360;2023-05-03T07:47:11;96298.09;;;13.92;100.00
29169;BME280;16219;42.864;23.360;2023-05-03T07:49:38;96286.81;;;14.04;100.00
29169;BME280;16219;42.864;23.360;2023-05-03T07:52:06;96285.44;;;13.97;100.00
29169;BME280;16219;42.864;23.360;2023-05-03T07:54:33;96288.88;;;13.98;100.00
29169;BME280;16219;42.864;23.360;2023-05-03T07:57:01;96297.75;;;14.02;100.00
29169;BME280;16219;42.864;23.360;2023-05-03T07:59:28;96298.72;;;13.97;97.91
29169;BME280;16219;42.864;23.360;2023-05-03T08:01:55;96294.59;;;14.09;100.00
29169;BME280;16219;42.864;23.360;2023-05-03T08:04:33;96273.94;;;14.23;98.99
29169;BME280;16219;42.864;23.360;2023-05-03T08:07:01;96258.72;;;14.32;92.54
29169;BME280;16219;42.864;23.360;2023-05-03T08:09:30;96253.19;;;14.16;91.70
29169;BME280;16219;42.864;23.360;2023-05-03T08:11:57;96257.16;;;14.01;98.12
29169;BME280;16219;42.864;23.360;2023-05-03T08:14:24;96255.69;;;13.83;97.92
29169;BME280;16219;42.864;23.360;2023-05-03T08:16:52;96263.84;;;13.78;100.00
29169;BME280;16219;42.864;23.360;2023-05-03T08:19:19;96277.19;;;13.90;100.00
29169;BME280;16219;42.864;23.360;2023-05-03T08:21:46;96282.13;;;14.00;100.00
29169;BME280;16219;42.864;23.360;2023-05-03T08:24:13;96276.38;;;14.28;100.00
29169;BME280;16219;42.864;23.360;2023-05-03T08:26:42;96278.59;;;14.47;99.46
29169;BME280;16219;42.864;23.360;2023-05-03T08:29:10;96271.47;;;14.39;97.00
29169;BME280;16219;42.864;23.360;2023-05-03T08:31:38;96269.06;;;14.55;99.22
29169;BME280;16219;42.864;23.360;2023-05-03T08:34:05;96270.88;;;14.84;100.00
29169;BME280;16219;42.864;23.360;2023-05-03T08:36:35;96274.00;;;14.98;100.00
29169;BME280;16219;42.864;23.360;2023-05-03T08:39:03;96273.41;;;15.13;93.96
29169;BME280;16219;42.864;23.360;2023-05-03T08:41:32;96271.97;;;15.16;93.02
29169;BME280;16219;42.864;23.360;2023-05-03T08:44:00;96271.19;;;15.15;94.54
29169;BME280;16219;42.864;23.360;2023-05-03T08:46:30;96274.69;;;15.40;92.56
29169;BME280;16219;42.864;23.360;2023-05-03T08:49:01;96264.59;;;15.67;93.43
29169;BME280;16219;42.864;23.360;2023-05-03T08:51:29;96258.16;;;16.05;92.65
29169;BME280;16219;42.864;23.360;2023-05-03T08:53:56;96260.44;;;16.55;95.03
29169;BME280;16219;42.864;23.360;2023-05-03T08:56:28;96266.22;;;16.97;94.60
29169;BME280;16219;42.864;23.360;2023-05-03T08:58:55;96267.47;;;17.16;84.74
29169;BME280;16219;42.864;23.360;2023-05-03T09:01:31;96256.72;;;16.84;82.74
29169;BME280;16219;42.864;23.360;2023-05-03T09:03:58;96258.00;;;16.90;86.52
29169;BME280;16219;42.864;23.360;2023-05-03T09:06:25;96249.44;;;16.97;87.73
29169;BME280;16219;42.864;23.360;2023-05-03T09:08:52;96253.59;;;17.38;92.38
29169;BME280;16219;42.864;23.360;2023-05-03T09:11:20;96248.94;;;17.67;87.62
29169;BME280;16219;42.864;23.360;2023-05-03T09:13:49;96254.91;;;17.92;78.41
29169;BME280;16219;42.864;23.360;2023-05-03T09:16:23;96245.34;;;18.07;85.00
29169;BME280;16219;42.864;23.360;2023-05-03T09:18:57;96234.13;;;18.17;74.36
29169;BME280;16219;42.864;23.360;2023-05-03T09:21:24;96232.75;;;18.07;80.74
29169;BME280;16219;42.864;23.360;2023-05-03T09:23:51;96237.25;;;18.03;79.55
29169;BME280;16219;42.864;23.360;2023-05-03T09:26:29;96225.53;;;18.08;76.08
29169;BME280;16219;42.864;23.360;2023-05-03T09:28:58;96226.94;;;18.02;82.02
29169;BME280;16219;42.864;23.360;2023-05-03T09:31:26;96231.69;;;17.77;74.89
29169;BME280;16219;42.864;23.360;2023-05-03T09:33:54;96217.47;;;17.88;82.04
29169;BME280;16219;42.864;23.360;2023-05-03T09:36:23;96201.88;;;17.90;70.90
29169;BME280;16219;42.864;23.360;2023-05-03T09:38:52;96200.44;;;17.77;72.63
29169;BME280;16219;42.864;23.360;2023-05-03T09:41:25;96198.34;;;17.55;79.70
29169;BME280;16219;42.864;23.360;2023-05-03T09:43:53;96197.56;;;17.54;89.33
29169;BME280;16219;42.864;23.360;2023-05-03T09:46:22;96204.44;;;17.71;85.51
29169;BME280;16219;42.864;23.360;2023-05-03T09:48:50;96201.34;;;17.69;78.13
29169;BME280;16219;42.864;23.360;2023-05-03T09:51:22;96204.97;;;17.61;85.28
29169;BME280;16219;42.864;23.360;2023-05-03T09:53:50;96184.41;;;17.45;75.60
29169;BME280;16219;42.864;23.360;2023-05-03T09:56:18;96179.75;;;17.74;86.51
29169;BME280;16219;42.864;23.360;2023-05-03T09:58:51;96186.59;;;18.07;83.41
29169;BME280;16219;42.864;23.360;2023-05-03T10:01:18;96178.91;;;18.40;76.10
29169;BME280;16219;42.864;23.360;2023-05-03T10:03:47;96179.88;;;18.52;69.44
29169;BME280;16219;42.864;23.360;2023-05-03T10:06:23;96176.31;;;18.44;72.29
29169;BME280;16219;42.864;23.360;2023-05-03T10:08:59;96188.44;;;18.22;88.00
29169;BME280;16219;42.864;23.360;2023-05-03T10:11:32;96171.56;;;18.18;74.19
29169;BME280;16219;42.864;23.360;2023-05-03T10:14:00;96170.09;;;18.01;74.39
29169;BME280;16219;42.864;23.360;2023-05-03T10:16:29;96183.75;;;18.15;83.14
29169;BME280;16219;42.864;23.360;2023-05-03T10:19:05;96179.16;;;18.16;76.97
29169;BME280;16219;42.864;23.360;2023-05-03T10:21:46;96163.22;;;18.19;68.37
29169;BME280;16219;42.864;23.360;2023-05-03T10:24:16;96148.72;;;18.01;79.91
29169;BME280;16219;42.864;23.360;2023-05-03T10:26:44;96166.22;;;17.98;78.80
29169;BME280;16219;42.864;23.360;2023-05-03T10:29:46;96160.88;;;18.18;75.75
29169;BME280;16219;42.864;23.360;2023-05-03T10:32:35;96168.00;;;18.68;88.85
29169;BME280;16219;42.864;23.360;2023-05-03T10:35:07;96147.78;;;19.10;77.10
29169;BME280;16219;42.864;23.360;2023-05-03T10:37:36;96148.13;;;19.54;69.79
29169;BME280;16219;42.864;23.360;2023-05-03T10:40:09;96150.59;;;19.66;66.80
29169;BME280;16219;42.864;23.360;2023-05-03T10:42:39;96137.44;;;19.81;67.42
29169;BME280;16219;42.864;23.360;2023-05-03T10:45:19;96135.34;;;19.67;66.21
29169;BME280;16219;42.864;23.360;2023-05-03T10:48:16;96127.19;;;19.86;79.65
29169;BME280;16219;42.864;23.360;2023-05-03T10:50:47;96122.94;;;20.12;72.20
29169;BME280;16219;42.864;23.360;2023-05-03T10:53:37;96121.78;;;20.13;73.15
29169;BME280;16219;42.864;23.360;2023-05-03T10:56:07;96110.03;;;20.21;63.82
29169;BME280;16219;42.864;23.360;2023-05-03T10:58:36;96112.13;;;20.05;68.85
29169;BME280;16219;42.864;23.360;2023-05-03T11:01:05;96114.69;;;19.94;63.88
29169;BME280;16219;42.864;23.360;2023-05-03T11:03:43;96120.56;;;19.77;61.61
29169;BME280;16219;42.864;23.360;2023-05-03T11:06:29;96130.03;;;19.70;62.70
29169;BME280;16219;42.864;23.360;2023-05-03T11:08:59;96130.00;;;19.67;60.26
29169;BME280;16219;42.864;23.360;2023-05-03T11:11:27;96129.59;;;19.42;74.68
29169;BME280;16219;42.864;23.360;2023-05-03T11:13:54;96138.78;;;19.44;66.77
29169;BME280;16219;42.864;23.360;2023-05-03T11:16:22;96137.78;;;19.30;67.43
29169;BME280;16219;42.864;23.360;2023-05-03T11:18:50;96125.31;;;19.14;66.33
29169;BME280;16219;42.864;23.360;2023-05-03T11:21:18;96135.56;;;18.89;72.16
29169;BME280;16219;42.864;23.360;2023-05-03T11:23:46;96131.53;;;18.76;72.84
29169;BME280;16219;42.864;23.360;2023-05-03T11:26:14;96126.09;;;18.72;74.02
29169;BME280;16219;42.864;23.360;2023-05-03T11:28:43;96115.25;;;18.85;79.05
29169;BME280;16219;42.864;23.360;2023-05-03T11:31:11;96124.38;;;19.03;69.56
29169;BME280;16219;42.864;23.360;2023-05-03T11:33:40;96121.03;;;19.10;68.83
29169;BME280;16219;42.864;23.360;2023-05-03T11:36:08;96117.78;;;19.20;70.84
29169;BME280;16219;42.864;23.360;2023-05-03T11:38:37;96111.50;;;19.35;67.92
29169;BME280;16219;42.864;23.360;2023-05-03T11:41:12;96117.38;;;19.67;68.51
29169;BME280;16219;42.864;23.360;2023-05-03T11:43:43;96119.97;;;19.90;68.95
29169;BME280;16219;42.864;23.360;2023-05-03T11:46:10;96112.50;;;20.03;76.61
29169;BME280;16219;42.864;23.360;2023-05-03T11:48:39;96112.84;;;20.32;68.00
29169;BME280;16219;42.864;23.360;2023-05-03T11:51:07;96117.72;;;20.53;61.70
29169;BME280;16219;42.864;23.360;2023-05-03T11:53:37;96112.13;;;20.35;64.92
29169;BME280;16219;42.864;23.360;2023-05-03T11:56:06;96104.81;;;20.32;64.60
29169;BME280;16219;42.864;23.360;2023-05-03T11:58:34;96109.28;;;20.20;64.86
29169;BME280;16219;42.864;23.360;2023-05-03T12:01:03;96108.31;;;20.36;73.11
29169;BME280;16219;42.864;23.360;2023-05-03T12:03:31;96078.94;;;20.13;67.72
29169;BME280;16219;42.864;23.360;2023-05-03T12:06:00;96091.75;;;20.27;67.97
29169;BME280;16219;42.864;23.360;2023-05-03T12:08:29;96072.47;;;20.14;69.80
29169;BME280;16219;42.864;23.360;2023-05-03T12:10:59;96084.00;;;20.21;69.25
29169;BME280;16219;42.864;23.360;2023-05-03T12:13:27;96084.00;;;20.21;68.65
29169;BME280;16219;42.864;23.360;2023-05-03T12:15:56;96085.16;;;20.20;65.46
29169;BME280;16219;42.864;23.360;2023-05-03T12:18:26;96081.13;;;20.04;79.50
29169;BME280;16219;42.864;23.360;2023-05-03T12:20:55;96078.53;;;20.11;72.24
29169;BME280;16219;42.864;23.360;2023-05-03T12:23:23;96068.22;;;20.46;68.61
29169;BME280;16219;42.864;23.360;2023-05-03T12:25:51;96077.09;;;20.51;70.48
29169;BME280;16219;42.864;23.360;2023-05-03T12:28:18;96057.44;;;20.43;66.89
29169;BME280;16219;42.864;23.360;2023-05-03T12:30:46;96065.88;;;20.41;65.44
29169;BME280;16219;42.864;23.360;2023-05-03T12:33:13;96057.34;;;20.66;68.97
29169;BME280;16219;42.864;23.360;2023-05-03T12:35:44;96047.38;;;20.66;62.13
29169;BME280;16219;42.864;23.360;2023-05-03T12:38:11;96040.16;;;20.70;66.25
29169;BME280;16219;42.864;23.360;2023-05-03T12:40:38;96040.31;;;20.88;66.61
29169;BME280;16219;42.864;23.360;2023-05-03T12:43:05;96044.97;;;20.95;69.03
29169;BME280;16219;42.864;23.360;2023-05-03T12:45:32;96045.00;;;20.99;64.43
29169;BME280;16219;42.864;23.360;2023-05-03T12:47:59;96041.03;;;20.85;72.48
29169;BME280;16219;42.864;23.360;2023-05-03T12:50:27;96056.94;;;20.64;71.02
29169;BME280;16219;42.864;23.360;2023-05-03T12:52:56;96033.25;;;20.32;66.56
29169;BME280;16219;42.864;23.360;2023-05-03T12:55:23;96051.44;;;20.16;69.31
29169;BME280;16219;42.864;23.360;2023-05-03T12:57:51;96031.28;;;19.95;66.47
29169;BME280;16219;42.864;23.360;2023-05-03T13:00:19;96040.19;;;19.73;79.90